createdAt,value
2023-04-15T00:00:13.797Z,10.18
2023-04-15T00:01:19.260Z,8.50
2023-04-15T00:02:21.243Z,9.00
2023-04-15T00:03:23.758Z,7.65
2023-04-15T00:04:25.837Z,9.10
2023-04-15T00:05:27.527Z,8.50
2023-04-15T00:06:29.018Z,9.00
2023-04-15T00:07:30.469Z,7.68
2023-04-15T00:08:32.120Z,8.38
2023-04-15T00:09:33.821Z,8.90
2023-04-15T00:10:35.280Z,8.65
2023-04-15T00:11:36.725Z,8.50
2023-04-15T00:12:38.199Z,8.82
2023-04-15T00:13:40.065Z,9.15
2023-04-15T00:14:41.639Z,8.20
2023-04-15T00:15:43.402Z,9.68
2023-04-15T00:16:45.046Z,8.73
2023-04-15T00:17:47.086Z,7.97
2023-04-15T00:18:48.937Z,8.40
2023-04-15T00:19:50.386Z,7.72
2023-04-15T00:20:52.578Z,9.45
2023-04-15T00:21:54.107Z,10.27
2023-04-15T00:22:55.601Z,8.10
2023-04-15T00:23:57.711Z,9.70
2023-04-15T00:24:59.258Z,8.82
2023-04-15T00:26:00.741Z,8.00
2023-04-15T00:27:02.245Z,8.40
2023-04-15T00:28:04.116Z,8.95
2023-04-15T00:29:06.413Z,9.48
2023-04-15T00:30:08.304Z,7.88
2023-04-15T00:31:09.991Z,8.40
2023-04-15T00:32:11.488Z,7.63
2023-04-15T00:33:14.099Z,8.82
2023-04-15T00:34:15.725Z,10.32
2023-04-15T00:35:17.440Z,10.00
2023-04-15T00:36:19.477Z,8.27
2023-04-15T00:37:21.243Z,8.23
2023-04-15T00:38:22.789Z,7.55
2023-04-15T00:39:24.859Z,9.88
2023-04-15T00:40:26.482Z,7.50
2023-04-15T00:41:28.072Z,7.55
2023-04-15T00:42:29.813Z,10.63
2023-04-15T00:43:31.365Z,8.13
2023-04-15T00:44:33.544Z,9.40
2023-04-15T00:45:35.107Z,9.05
2023-04-15T00:46:38.475Z,10.25
2023-04-15T00:47:42.411Z,7.53
2023-04-15T00:48:44.233Z,8.90
2023-04-15T00:49:45.714Z,7.82
2023-04-15T00:50:47.266Z,7.90
2023-04-15T00:51:49.308Z,7.97
2023-04-15T00:52:50.767Z,7.88
2023-04-15T00:53:52.378Z,8.50
2023-04-15T00:54:53.865Z,8.63
2023-04-15T00:55:56.136Z,7.95
2023-04-15T00:56:58.029Z,7.00
2023-04-15T00:57:59.613Z,8.35
2023-04-15T00:59:02.325Z,8.00
2023-04-15T01:00:08.020Z,9.18
2023-04-15T01:01:10.217Z,8.35
2023-04-15T01:02:12.086Z,8.50
2023-04-15T01:03:14.395Z,10.65
2023-04-15T01:04:16.460Z,8.40
2023-04-15T01:05:18.643Z,8.60
2023-04-15T01:06:20.116Z,8.77
2023-04-15T01:07:21.579Z,7.10
2023-04-15T01:08:23.071Z,7.53
2023-04-15T01:09:24.752Z,10.38
2023-04-15T01:10:26.344Z,9.20
2023-04-15T01:11:28.180Z,7.22
2023-04-15T01:12:32.159Z,9.52
2023-04-15T01:13:34.508Z,7.07
2023-04-15T01:14:36.206Z,8.52
2023-04-15T01:15:37.796Z,8.15
2023-04-15T01:16:39.909Z,7.25
2023-04-15T01:17:42.055Z,7.47
2023-04-15T01:18:43.950Z,7.00
2023-04-15T01:19:45.783Z,7.78
2023-04-15T01:20:47.297Z,7.60
2023-04-15T01:21:48.855Z,6.57
2023-04-15T01:22:51.367Z,7.25
2023-04-15T01:23:55.408Z,7.07
2023-04-15T01:25:20.195Z,6.80
2023-04-15T01:26:22.255Z,8.38
2023-04-15T01:27:24.303Z,6.47
2023-04-15T01:28:26.158Z,8.32
2023-04-15T01:29:28.003Z,7.22
2023-04-15T01:30:30.006Z,7.78
2023-04-15T01:31:31.971Z,7.22
2023-04-15T01:32:33.606Z,6.97
2023-04-15T01:33:35.178Z,6.85
2023-04-15T01:34:37.052Z,7.68
2023-04-15T01:35:38.931Z,6.35
2023-04-15T01:36:40.444Z,7.05
2023-04-15T01:37:42.205Z,7.88
2023-04-15T01:38:43.730Z,6.72
2023-04-15T01:39:45.483Z,6.63
2023-04-15T01:40:46.932Z,6.97
2023-04-15T01:41:48.696Z,7.38
2023-04-15T01:42:50.178Z,7.57
2023-04-15T01:43:52.590Z,6.78
2023-04-15T01:44:54.135Z,6.95
2023-04-15T01:45:56.590Z,6.35
2023-04-15T01:46:58.700Z,6.68
2023-04-15T01:48:00.310Z,6.15
2023-04-15T01:49:02.373Z,7.20
2023-04-15T01:50:04.355Z,7.43
2023-04-15T01:51:05.922Z,6.15
2023-04-15T01:52:07.957Z,6.65
2023-04-15T01:53:09.717Z,7.07
2023-04-15T01:54:11.240Z,6.85
2023-04-15T01:55:13.370Z,7.03
2023-04-15T01:56:16.517Z,7.30
2023-04-15T01:57:18.331Z,6.78
2023-04-15T01:58:20.035Z,6.20
2023-04-15T01:59:21.670Z,7.30
2023-04-15T02:00:23.127Z,6.50
2023-04-15T02:01:25.030Z,6.68
2023-04-15T02:02:26.757Z,7.28
2023-04-15T02:03:29.775Z,7.85
2023-04-15T02:04:31.724Z,7.13
2023-04-15T02:05:33.798Z,7.22
2023-04-15T02:06:36.408Z,6.40
2023-04-15T02:07:37.984Z,7.05
2023-04-15T02:08:39.442Z,6.65
2023-04-15T02:09:40.940Z,6.65
2023-04-15T02:10:42.788Z,6.78
2023-04-15T02:11:44.877Z,6.68
2023-04-15T02:12:46.571Z,6.00
2023-04-15T02:13:47.972Z,6.53
2023-04-15T02:14:49.418Z,7.95
2023-04-15T02:15:52.519Z,8.10
2023-04-15T02:16:53.991Z,7.20
2023-04-15T02:17:55.679Z,7.45
2023-04-15T02:18:57.383Z,6.22
2023-04-15T02:19:59.339Z,6.97
2023-04-15T02:21:01.163Z,7.72
2023-04-15T02:22:02.746Z,6.93
2023-04-15T02:23:07.385Z,6.93
2023-04-15T02:24:09.053Z,6.97
2023-04-15T02:25:11.705Z,9.05
2023-04-15T02:26:13.248Z,7.60
2023-04-15T02:27:18.397Z,8.05
2023-04-15T02:28:19.872Z,7.20
2023-04-15T02:29:21.466Z,6.85
2023-04-15T02:30:23.979Z,6.40
2023-04-15T02:31:26.078Z,6.85
2023-04-15T02:32:28.984Z,6.90
2023-04-15T02:33:32.352Z,7.43
2023-04-15T02:34:33.990Z,6.38
2023-04-15T02:35:36.517Z,6.20
2023-04-15T02:36:39.255Z,6.60
2023-04-15T02:37:43.527Z,6.50
2023-04-15T02:38:45.388Z,6.90
2023-04-15T02:39:47.124Z,7.28
2023-04-15T02:40:50.645Z,6.80
2023-04-15T02:41:52.578Z,8.15
2023-04-15T02:42:54.052Z,6.85
2023-04-15T02:43:55.828Z,6.80
2023-04-15T02:44:58.374Z,6.93
2023-04-15T02:45:59.928Z,6.30
2023-04-15T02:47:01.525Z,6.68
2023-04-15T02:48:06.331Z,7.85
2023-04-15T02:49:08.645Z,6.00
2023-04-15T02:50:12.781Z,6.90
2023-04-15T02:51:16.145Z,6.05
2023-04-15T02:52:17.647Z,6.57
2023-04-15T02:53:19.997Z,8.48
2023-04-15T02:54:26.137Z,7.72
2023-04-15T02:55:27.875Z,6.35
2023-04-15T02:56:30.260Z,7.88
2023-04-15T02:57:31.827Z,7.65
2023-04-15T02:58:34.848Z,8.43
2023-04-15T03:00:37.955Z,9.15
2023-04-15T03:01:39.528Z,6.95
2023-04-15T03:02:42.351Z,6.65
2023-04-15T03:03:44.063Z,6.18
2023-04-15T03:04:46.106Z,6.65
2023-04-15T03:05:47.994Z,6.53
2023-04-15T03:06:49.579Z,6.47
2023-04-15T03:07:54.215Z,6.45
2023-04-15T03:08:57.058Z,7.05
2023-04-15T03:09:58.502Z,7.72
2023-04-15T03:11:01.257Z,6.15
2023-04-15T03:12:03.059Z,6.53
2023-04-15T03:13:04.547Z,6.70
2023-04-15T03:14:06.209Z,6.45
2023-04-15T03:15:09.001Z,7.18
2023-04-15T03:16:10.967Z,6.68
2023-04-15T03:17:12.572Z,9.85
2023-04-15T03:18:14.211Z,6.35
2023-04-15T03:19:15.673Z,7.32
2023-04-15T03:20:17.356Z,6.90
2023-04-15T03:21:20.398Z,7.40
2023-04-15T03:25:26.417Z,6.43
2023-04-15T03:26:31.676Z,6.95
2023-04-15T03:27:33.218Z,7.05
2023-04-15T03:28:34.737Z,7.75
2023-04-15T03:29:36.319Z,7.70
2023-04-15T03:30:37.839Z,8.70
2023-04-15T03:31:39.384Z,6.22
2023-04-15T03:32:40.887Z,5.97
2023-04-15T03:33:42.456Z,7.00
2023-04-15T03:34:44.247Z,7.85
2023-04-15T03:35:46.277Z,5.90
2023-04-15T03:36:47.846Z,8.00
2023-04-15T03:37:49.366Z,6.10
2023-04-15T03:38:51.067Z,6.43
2023-04-15T03:39:52.880Z,6.32
2023-04-15T03:40:54.398Z,7.78
2023-04-15T03:41:56.471Z,6.75
2023-04-15T03:42:58.022Z,5.97
2023-04-15T03:43:59.754Z,6.43
2023-04-15T03:45:01.934Z,7.03
2023-04-15T03:46:03.760Z,6.68
2023-04-15T03:47:05.350Z,6.43
2023-04-15T03:48:17.072Z,6.45
2023-04-15T03:49:19.965Z,6.15
2023-04-15T03:50:22.189Z,6.88
2023-04-15T03:51:23.670Z,6.22
2023-04-15T03:52:25.730Z,6.10
2023-04-15T03:53:27.180Z,7.80
2023-04-15T03:54:28.633Z,6.75
2023-04-15T03:55:30.867Z,6.50
2023-04-15T03:56:32.346Z,6.70
2023-04-15T03:57:38.088Z,6.70
2023-04-15T03:58:39.593Z,6.97
2023-04-15T03:59:41.119Z,7.22
2023-04-15T04:00:42.641Z,7.47
2023-04-15T04:01:44.159Z,7.35
2023-04-15T04:02:46.230Z,8.10
2023-04-15T04:03:48.037Z,6.60
2023-04-15T04:04:49.720Z,6.25
2023-04-15T04:05:51.678Z,6.75
2023-04-15T04:06:53.127Z,6.90
2023-04-15T04:08:00.653Z,7.72
2023-04-15T04:09:02.901Z,6.93
2023-04-15T04:10:05.253Z,6.32
2023-04-15T04:11:07.123Z,6.65
2023-04-15T04:12:09.031Z,6.78
2023-04-15T04:13:10.721Z,6.55
2023-04-15T04:14:12.292Z,6.07
2023-04-15T04:15:13.894Z,6.57
2023-04-15T04:16:15.756Z,6.80
2023-04-15T04:17:17.444Z,6.63
2023-04-15T04:18:19.024Z,7.15
2023-04-15T04:19:20.870Z,7.22
2023-04-15T04:20:22.504Z,8.43
2023-04-15T04:21:24.170Z,7.47
2023-04-15T04:22:25.721Z,6.30
2023-04-15T04:23:27.350Z,6.35
2023-04-15T04:24:28.843Z,6.22
2023-04-15T04:25:30.345Z,7.32
2023-04-15T04:26:32.159Z,7.30
2023-04-15T04:27:33.632Z,7.22
2023-04-15T04:28:36.413Z,6.03
2023-04-15T04:29:37.862Z,6.35
2023-04-15T04:30:40.312Z,6.32
2023-04-15T04:31:41.933Z,6.88
2023-04-15T04:32:43.547Z,7.50
2023-04-15T04:33:45.337Z,7.75
2023-04-15T04:34:47.299Z,6.35
2023-04-15T04:35:49.191Z,6.95
2023-04-15T04:36:50.719Z,6.85
2023-04-15T04:37:52.470Z,8.50
2023-04-15T04:38:54.002Z,6.68
2023-04-15T04:39:55.583Z,6.68
2023-04-15T04:40:57.468Z,7.07
2023-04-15T04:41:58.966Z,6.60
2023-04-15T04:43:00.563Z,6.78
2023-04-15T04:44:02.506Z,6.05
2023-04-15T04:45:04.338Z,7.00
2023-04-15T04:46:06.149Z,7.90
2023-04-15T04:47:07.826Z,5.63
2023-04-15T04:48:10.569Z,6.80
2023-04-15T04:49:12.088Z,5.93
2023-04-15T04:50:13.644Z,6.95
2023-04-15T04:51:16.318Z,7.60
2023-04-15T04:52:17.824Z,6.50
2023-04-15T04:53:19.410Z,6.85
2023-04-15T04:54:21.363Z,6.60
2023-04-15T04:55:22.859Z,7.10
2023-04-15T04:56:24.721Z,6.75
2023-04-15T04:57:26.528Z,6.03
2023-04-15T04:58:28.039Z,6.80
2023-04-15T04:59:29.634Z,6.45
2023-04-15T05:00:31.587Z,6.75
2023-04-15T05:01:33.709Z,7.10
2023-04-15T05:02:36.102Z,6.80
2023-04-15T05:03:38.335Z,6.68
2023-04-15T05:04:39.938Z,5.90
2023-04-15T05:05:41.649Z,7.85
2023-04-15T05:06:43.209Z,7.65
2023-04-15T05:07:44.746Z,6.53
2023-04-15T05:08:47.150Z,6.53
2023-04-15T05:09:48.653Z,7.05
2023-04-15T05:10:50.495Z,6.57
2023-04-15T05:11:52.024Z,7.32
2023-04-15T05:12:53.599Z,7.35
2023-04-15T05:13:55.433Z,6.97
2023-04-15T05:14:57.066Z,8.10
2023-04-15T05:15:58.986Z,6.35
2023-04-15T05:17:00.539Z,6.40
2023-04-15T05:18:02.283Z,6.90
2023-04-15T05:19:04.032Z,6.60
2023-04-15T05:20:06.124Z,6.22
2023-04-15T05:21:08.098Z,6.07
2023-04-15T05:22:09.629Z,7.43
2023-04-15T05:23:11.264Z,6.13
2023-04-15T05:24:12.818Z,6.15
2023-04-15T05:25:14.375Z,9.40
2023-04-15T05:26:16.312Z,6.28
2023-04-15T05:27:19.102Z,6.65
2023-04-15T05:28:21.245Z,6.30
2023-04-15T05:29:22.759Z,7.07
2023-04-15T05:30:24.609Z,7.20
2023-04-15T05:31:26.727Z,6.82
2023-04-15T05:32:28.294Z,6.82
2023-04-15T05:33:29.805Z,6.72
2023-04-15T05:34:31.523Z,7.82
2023-04-15T05:35:33.405Z,6.38
2023-04-15T05:36:34.918Z,7.03
2023-04-15T05:37:36.435Z,7.25
2023-04-15T05:38:38.481Z,6.15
2023-04-15T05:39:40.077Z,6.97
2023-04-15T05:40:41.677Z,8.10
2023-04-15T05:41:43.191Z,8.00
2023-04-15T05:42:44.689Z,6.78
2023-04-15T05:43:46.504Z,7.00
2023-04-15T05:44:48.537Z,6.82
2023-04-15T05:45:50.161Z,7.32
2023-04-15T05:46:51.994Z,6.55
2023-04-15T05:47:54.465Z,7.28
2023-04-15T05:48:56.580Z,7.30
2023-04-15T05:49:59.255Z,6.53
2023-04-15T05:51:01.304Z,7.97
2023-04-15T05:52:03.205Z,8.35
2023-04-15T05:53:04.731Z,6.75
2023-04-15T05:54:06.876Z,6.75
2023-04-15T05:55:09.032Z,7.25
2023-04-15T05:56:10.641Z,8.27
2023-04-15T05:57:12.117Z,7.65
2023-04-15T05:58:13.578Z,6.47
2023-04-15T05:59:15.123Z,7.63
2023-04-15T06:00:17.092Z,7.10
2023-04-15T06:01:18.594Z,7.28
2023-04-15T06:02:20.455Z,7.97
2023-04-15T06:03:23.092Z,7.65
2023-04-15T06:04:24.847Z,6.72
2023-04-15T06:05:26.401Z,7.55
2023-04-15T06:06:27.869Z,7.22
2023-04-15T06:07:29.337Z,7.80
2023-04-15T06:08:30.894Z,6.50
2023-04-15T06:09:32.301Z,8.15
2023-04-15T06:10:36.980Z,7.60
2023-04-15T06:11:38.506Z,8.07
2023-04-15T06:12:40.075Z,7.47
2023-04-15T06:13:41.540Z,7.25
2023-04-15T06:14:43.362Z,6.72
2023-04-15T06:15:45.118Z,7.32
2023-04-15T06:16:47.034Z,8.23
2023-04-15T06:17:48.625Z,7.45
2023-04-15T06:18:50.081Z,7.40
2023-04-15T06:19:55.888Z,6.50
2023-04-15T06:20:57.588Z,8.52
2023-04-15T06:23:01.147Z,6.60
2023-04-15T06:24:02.801Z,7.30
2023-04-15T06:25:04.844Z,7.03
2023-04-15T06:26:06.316Z,6.63
2023-04-15T06:27:08.059Z,7.32
2023-04-15T06:28:09.485Z,7.97
2023-04-15T06:29:10.999Z,7.32
2023-04-15T06:30:13.825Z,6.57
2023-04-15T06:31:15.479Z,7.78
2023-04-15T06:32:16.955Z,6.90
2023-04-15T06:33:18.469Z,9.05
2023-04-15T06:34:20.084Z,7.95
2023-04-15T06:35:22.505Z,7.63
2023-04-15T06:36:24.001Z,7.22
2023-04-15T06:37:25.505Z,7.32
2023-04-15T06:38:27.026Z,6.72
2023-04-15T06:39:28.638Z,7.43
2023-04-15T06:40:30.259Z,7.65
2023-04-15T06:41:31.830Z,8.05
2023-04-15T06:42:34.107Z,6.72
2023-04-15T06:43:35.594Z,8.68
2023-04-15T06:44:37.282Z,7.05
2023-04-15T06:45:38.840Z,8.93
2023-04-15T06:46:40.671Z,8.75
2023-04-15T06:47:43.649Z,10.68
2023-04-15T06:48:45.306Z,12.15
2023-04-15T06:49:46.827Z,11.07
2023-04-15T06:50:50.200Z,10.27
2023-04-15T06:51:51.670Z,8.43
2023-04-15T06:52:54.811Z,11.38
2023-04-15T06:53:56.928Z,15.27
2023-04-15T06:54:59.667Z,13.65
2023-04-15T06:56:01.677Z,10.20
2023-04-15T06:57:03.410Z,8.02
2023-04-15T06:58:04.922Z,7.28
2023-04-15T06:59:06.700Z,8.85
2023-04-15T07:00:11.455Z,8.50
2023-04-15T07:01:14.375Z,8.60
2023-04-15T07:03:17.881Z,7.53
2023-04-15T07:04:19.526Z,8.48
2023-04-15T07:05:21.320Z,7.35
2023-04-15T07:06:22.752Z,8.55
2023-04-15T07:07:24.238Z,7.53
2023-04-15T07:08:25.755Z,7.20
2023-04-15T07:09:27.355Z,7.68
2023-04-15T07:10:29.318Z,8.95
2023-04-15T07:11:31.074Z,7.28
2023-04-15T07:12:32.710Z,8.48
2023-04-15T07:13:34.388Z,8.63
2023-04-15T07:14:36.528Z,8.02
2023-04-15T07:15:38.301Z,7.97
2023-04-15T07:16:39.839Z,7.50
2023-04-15T07:17:43.336Z,8.45
2023-04-15T07:18:44.964Z,8.80
2023-04-15T07:19:46.465Z,8.98
2023-04-15T07:20:48.842Z,7.35
2023-04-15T07:21:50.474Z,8.95
2023-04-15T07:22:52.024Z,7.35
2023-04-15T07:23:53.603Z,7.60
2023-04-15T07:24:55.021Z,8.13
2023-04-15T07:25:57.765Z,8.93
2023-04-15T07:27:01.112Z,7.85
2023-04-15T07:28:03.476Z,7.97
2023-04-15T07:29:05.015Z,6.43
2023-04-15T07:30:07.499Z,7.05
2023-04-15T07:31:09.083Z,7.60
2023-04-15T07:32:10.890Z,7.88
2023-04-15T07:33:12.621Z,7.45
2023-04-15T07:34:14.115Z,7.75
2023-04-15T07:35:16.120Z,9.63
2023-04-15T07:36:17.598Z,9.32
2023-04-15T07:37:19.247Z,9.57
2023-04-15T07:38:20.702Z,8.52
2023-04-15T07:39:22.698Z,8.05
2023-04-15T07:40:24.322Z,8.88
2023-04-15T07:41:26.614Z,8.77
2023-04-15T07:42:29.309Z,7.38
2023-04-15T07:43:30.861Z,8.18
2023-04-15T07:44:32.477Z,8.40
2023-04-15T07:45:34.452Z,8.30
2023-04-15T07:46:37.304Z,7.22
2023-04-15T07:47:39.057Z,7.60
2023-04-15T07:48:40.810Z,7.55
2023-04-15T07:49:43.454Z,12.25
2023-04-15T07:50:45.034Z,9.02
2023-04-15T07:51:46.575Z,7.82
2023-04-15T07:52:49.050Z,7.13
2023-04-15T07:53:51.126Z,6.93
2023-04-15T07:54:52.718Z,8.00
2023-04-15T07:55:54.236Z,6.82
2023-04-15T07:56:56.486Z,7.82
2023-04-15T07:57:57.988Z,7.03
2023-04-15T07:59:02.348Z,6.93
2023-04-15T08:00:06.157Z,7.25
2023-04-15T08:01:07.877Z,6.82
2023-04-15T08:02:11.713Z,6.90
2023-04-15T08:03:13.549Z,7.25
2023-04-15T08:04:15.826Z,6.25
2023-04-15T08:05:17.505Z,6.55
2023-04-15T08:06:19.513Z,6.10
2023-04-15T08:07:21.464Z,7.03
2023-04-15T08:08:22.972Z,7.38
2023-04-15T08:09:24.984Z,7.03
2023-04-15T08:10:26.652Z,7.45
2023-04-15T08:11:28.201Z,7.15
2023-04-15T08:12:29.840Z,7.78
2023-04-15T08:13:31.569Z,7.18
2023-04-15T08:14:40.522Z,6.75
2023-04-15T08:15:42.203Z,6.75
2023-04-15T08:16:43.944Z,6.82
2023-04-15T08:17:48.612Z,6.65
2023-04-15T08:18:52.169Z,7.00
2023-04-15T08:19:54.057Z,6.65
2023-04-15T08:20:55.594Z,7.57
2023-04-15T08:22:00.693Z,7.47
2023-04-15T08:23:10.538Z,9.40
2023-04-15T08:25:15.692Z,7.13
2023-04-15T08:26:39.404Z,6.82
2023-04-15T08:27:52.160Z,7.45
2023-04-15T08:29:04.537Z,8.05
2023-04-15T08:30:06.934Z,7.32
2023-04-15T08:31:09.651Z,6.90
2023-04-15T08:32:11.323Z,7.13
2023-04-15T08:33:13.191Z,8.45
2023-04-15T08:34:23.260Z,7.72
2023-04-15T08:35:24.938Z,7.50
2023-04-15T08:36:27.174Z,7.28
2023-04-15T08:39:11.475Z,7.13
2023-04-15T08:40:29.179Z,9.32
2023-04-15T08:42:20.806Z,8.50
2023-04-15T08:44:10.301Z,7.50
2023-04-15T08:45:36.747Z,6.97
2023-04-15T08:46:39.694Z,6.93
2023-04-15T08:48:07.467Z,14.68
2023-04-15T08:51:36.213Z,7.03
2023-04-15T08:52:41.101Z,6.68
2023-04-15T08:54:00.726Z,8.25
2023-04-15T08:55:04.097Z,7.18
2023-04-15T08:56:10.228Z,7.47
2023-04-15T08:57:12.750Z,5.45
2023-04-15T08:58:14.608Z,6.03
2023-04-15T08:59:19.008Z,6.90
2023-04-15T09:00:38.010Z,8.07
2023-04-15T09:01:40.935Z,7.15
2023-04-15T09:09:53.130Z,6.38
2023-04-15T09:10:55.317Z,7.30
2023-04-15T09:11:58.709Z,6.57
2023-04-15T09:13:02.180Z,6.80
2023-04-15T09:14:03.767Z,6.75
2023-04-15T09:15:06.003Z,9.15
2023-04-15T09:16:08.486Z,7.18
2023-04-15T09:17:10.952Z,7.47
2023-04-15T09:18:15.179Z,6.20
2023-04-15T09:19:24.058Z,7.15
2023-04-15T09:20:25.655Z,7.93
2023-04-15T09:21:27.745Z,8.27
2023-04-15T09:22:32.558Z,6.30
2023-04-15T09:23:37.549Z,8.95
2023-04-15T09:24:41.044Z,8.05
2023-04-15T09:25:42.694Z,8.85
2023-04-15T09:26:44.148Z,7.88
2023-04-15T09:27:52.915Z,7.25
2023-04-15T09:29:04.067Z,30.17
2023-04-15T09:30:08.960Z,24.27
2023-04-15T09:44:59.440Z,6.43
2023-04-15T09:47:16.857Z,5.25
2023-04-15T09:48:42.532Z,5.28
2023-04-15T09:51:18.944Z,5.38
2023-04-15T09:52:21.698Z,5.82
2023-04-15T09:53:26.797Z,6.13
2023-04-15T09:54:41.685Z,5.35
2023-04-15T09:56:02.903Z,5.13
2023-04-15T09:57:10.834Z,6.20
2023-04-15T09:58:26.669Z,5.32
2023-04-15T09:59:28.326Z,5.25
2023-04-15T10:00:31.116Z,6.00
2023-04-15T10:01:33.461Z,4.90
2023-04-15T10:02:39.914Z,5.50
2023-04-15T10:17:16.692Z,9.38
2023-04-15T10:18:22.848Z,6.28
2023-04-15T10:20:24.022Z,5.82
2023-04-15T10:41:55.365Z,4.63
2023-04-15T10:50:56.561Z,4.68
2023-04-15T10:53:02.068Z,4.60
2023-04-15T10:59:17.961Z,5.55
2023-04-15T11:00:21.099Z,4.55
2023-04-15T11:02:02.348Z,4.32
2023-04-15T11:03:24.002Z,5.05
2023-04-15T11:05:11.404Z,4.32
2023-04-15T11:06:26.434Z,4.40
2023-04-15T11:07:35.887Z,4.90
2023-04-15T11:08:55.562Z,4.18
2023-04-15T11:11:19.712Z,3.72
2023-04-15T11:12:21.974Z,4.38
2023-04-15T11:13:27.118Z,4.63
2023-04-15T11:14:28.682Z,4.15
2023-04-15T11:15:38.880Z,4.35
2023-04-15T11:16:45.053Z,4.97
2023-04-15T11:17:47.080Z,3.95
2023-04-15T11:18:56.067Z,4.85
2023-04-15T11:19:58.486Z,4.00
2023-04-15T11:21:03.533Z,4.13
2023-04-15T11:22:35.060Z,3.63
2023-04-15T11:23:43.399Z,4.20
2023-04-15T11:24:50.723Z,3.83
2023-04-15T11:25:52.275Z,3.50
2023-04-15T11:27:01.940Z,4.88
2023-04-15T11:28:07.741Z,4.40
2023-04-15T11:29:17.843Z,4.65
2023-04-15T11:30:24.515Z,3.80
2023-04-15T11:31:28.677Z,3.80
2023-04-15T11:32:30.435Z,3.38
2023-04-15T11:33:31.974Z,3.83
2023-04-15T11:34:35.587Z,3.70
2023-04-15T11:35:37.855Z,4.15
2023-04-15T11:36:43.461Z,4.18
2023-04-15T11:37:46.881Z,3.85
2023-04-15T11:38:48.446Z,4.20
2023-04-15T11:39:50.022Z,4.10
2023-04-15T11:40:52.518Z,3.80
2023-04-15T11:41:54.075Z,3.42
2023-04-15T11:43:11.593Z,3.30
2023-04-15T11:44:19.039Z,3.58
2023-04-15T11:45:20.762Z,3.60
2023-04-15T11:46:29.589Z,3.50
2023-04-15T11:47:31.113Z,4.38
2023-04-15T11:48:34.939Z,4.13
2023-04-15T11:49:41.635Z,3.58
2023-04-15T11:50:43.191Z,3.90
2023-04-15T11:51:45.146Z,3.50
2023-04-15T11:52:57.037Z,5.53
2023-04-15T11:53:58.671Z,3.90
2023-04-15T11:55:08.249Z,6.32
2023-04-15T11:56:11.658Z,3.90
2023-04-15T11:57:13.994Z,3.83
2023-04-15T11:58:28.037Z,4.28
2023-04-15T11:59:45.215Z,3.42
2023-04-15T12:00:57.603Z,3.28
2023-04-15T12:02:12.852Z,3.50
2023-04-15T12:03:19.614Z,3.42
2023-04-15T12:04:25.388Z,3.33
2023-04-15T12:05:27.725Z,3.50
2023-04-15T12:06:37.366Z,4.03
2023-04-15T12:07:58.555Z,3.97
2023-04-15T12:09:06.264Z,4.00
2023-04-15T12:10:11.061Z,4.07
2023-04-15T12:11:12.530Z,3.80
2023-04-15T12:12:14.167Z,4.07
2023-04-15T12:13:16.382Z,3.22
2023-04-15T12:14:28.806Z,3.90
2023-04-15T12:15:32.356Z,3.20
2023-04-15T12:16:48.377Z,3.30
2023-04-15T12:17:55.219Z,4.03
2023-04-15T12:19:00.075Z,3.00
2023-04-15T12:20:01.748Z,3.42
2023-04-15T12:21:13.181Z,3.20
2023-04-15T12:22:17.088Z,3.67
2023-04-15T12:23:21.303Z,3.53
2023-04-15T12:24:23.576Z,3.05
2023-04-15T12:25:34.899Z,3.30
2023-04-15T12:26:43.361Z,3.22
2023-04-15T12:27:52.056Z,3.80
2023-04-15T12:29:02.481Z,3.13
2023-04-15T12:30:08.075Z,3.20
2023-04-15T12:31:11.151Z,3.00
2023-04-15T12:33:15.366Z,3.47
2023-04-15T12:34:17.634Z,3.20
2023-04-15T12:35:21.566Z,3.08
2023-04-15T12:36:23.740Z,3.17
2023-04-15T12:37:26.136Z,3.35
2023-04-15T12:38:27.975Z,3.20
2023-04-15T12:39:32.819Z,3.20
2023-04-15T12:40:34.355Z,3.40
2023-04-15T12:41:35.966Z,3.30
2023-04-15T12:42:37.955Z,3.15
2023-04-15T12:43:39.511Z,3.55
2023-04-15T12:44:41.895Z,3.40
2023-04-15T12:45:43.378Z,3.20
2023-04-15T12:46:46.206Z,3.40
2023-04-15T12:47:47.757Z,3.45
2023-04-15T12:48:51.252Z,3.05
2023-04-15T12:49:52.998Z,3.78
2023-04-15T12:50:54.674Z,2.65
2023-04-15T12:52:00.073Z,3.03
2023-04-15T12:53:01.853Z,2.88
2023-04-15T12:54:04.081Z,3.15
2023-04-15T12:55:07.730Z,3.33
2023-04-15T12:56:09.514Z,3.08
2023-04-15T12:57:11.308Z,3.40
2023-04-15T12:58:20.102Z,3.22
2023-04-15T13:02:34.281Z,8.52
2023-04-15T13:03:36.926Z,9.70
2023-04-15T13:04:51.720Z,6.53
2023-04-15T13:05:54.402Z,3.58
2023-04-15T13:07:00.316Z,3.63
2023-04-15T13:08:03.260Z,3.28
2023-04-15T13:18:46.859Z,4.03
2023-04-15T13:28:54.105Z,3.22
2023-04-15T13:38:32.229Z,3.28
2023-04-15T13:40:02.484Z,3.67
2023-04-15T13:41:25.030Z,3.88
2023-04-15T13:43:01.715Z,3.63
2023-04-15T13:51:19.576Z,3.30
2023-04-15T13:52:21.132Z,3.30
2023-04-15T13:53:33.874Z,2.95
2023-04-15T13:54:39.658Z,3.65
2023-04-15T13:55:42.715Z,3.30
2023-04-15T13:56:44.584Z,3.00
2023-04-15T13:57:46.766Z,4.15
2023-04-15T13:59:00.437Z,3.45
2023-04-15T14:00:04.653Z,2.97
2023-04-15T14:01:07.467Z,3.50
2023-04-15T14:03:11.146Z,3.22
2023-04-15T14:04:13.956Z,3.45
2023-04-15T14:05:15.915Z,3.25
2023-04-15T14:06:17.753Z,3.13
2023-04-15T14:07:22.156Z,3.05
2023-04-15T14:08:25.451Z,3.50
2023-04-15T14:09:28.159Z,2.67
2023-04-15T14:10:29.989Z,3.05
2023-04-15T14:11:32.012Z,3.30
2023-04-15T14:12:33.945Z,3.38
2023-04-15T14:13:36.901Z,3.53
2023-04-15T14:15:42.152Z,3.75
2023-04-15T14:16:44.073Z,3.40
2023-04-15T14:17:46.006Z,3.45
2023-04-15T14:18:50.869Z,3.80
2023-04-15T14:19:59.878Z,3.35
2023-04-15T14:21:01.612Z,3.30
2023-04-15T14:22:06.532Z,3.80
2023-04-15T14:23:08.725Z,3.65
2023-04-15T14:24:11.115Z,3.50
2023-04-15T14:25:27.006Z,3.60
2023-04-15T14:26:35.161Z,3.85
2023-04-15T14:27:36.950Z,3.30
2023-04-15T14:28:43.430Z,3.55
2023-04-15T14:29:45.069Z,5.95
2023-04-15T14:30:49.793Z,21.73
2023-04-15T14:32:04.553Z,15.88
2023-04-15T14:33:13.139Z,7.97
2023-04-15T14:34:14.759Z,4.93
2023-04-15T14:35:16.548Z,4.00
2023-04-15T14:36:20.769Z,4.10
2023-04-15T14:37:24.234Z,3.75
2023-04-15T14:38:26.046Z,3.90
2023-04-15T14:39:27.632Z,3.47
2023-04-15T14:40:29.711Z,3.72
2023-04-15T14:41:31.465Z,3.22
2023-04-15T14:42:36.256Z,3.50
2023-04-15T14:43:40.561Z,3.92
2023-04-15T14:44:44.206Z,3.45
2023-04-15T14:45:46.100Z,3.20
2023-04-15T14:46:48.054Z,3.03
2023-04-15T14:47:51.548Z,2.95
2023-04-15T14:48:56.287Z,3.08
2023-04-15T14:49:58.170Z,3.15
2023-04-15T14:50:59.928Z,2.92
2023-04-15T14:52:01.654Z,3.45
2023-04-15T14:53:06.295Z,3.75
2023-04-15T14:54:07.847Z,3.65
2023-04-15T14:55:11.004Z,3.22
2023-04-15T14:56:12.664Z,3.30
2023-04-15T14:57:14.545Z,3.65
2023-04-15T14:58:16.827Z,3.65
2023-04-15T14:59:18.346Z,4.20
2023-04-15T15:00:20.033Z,3.60
2023-04-15T15:01:21.858Z,4.05
2023-04-15T15:02:37.330Z,3.25
2023-04-15T15:03:40.941Z,3.58
2023-04-15T15:04:42.841Z,3.65
2023-04-15T15:05:46.964Z,3.60
2023-04-15T15:06:57.388Z,3.08
2023-04-15T15:08:11.018Z,4.30
2023-04-15T15:10:54.856Z,3.65
2023-04-15T15:11:57.345Z,3.60
2023-04-15T15:13:00.246Z,3.45
2023-04-15T15:14:01.762Z,3.40
2023-04-15T15:15:12.206Z,3.28
2023-04-15T15:16:21.576Z,3.50
2023-04-15T15:17:23.265Z,3.58
2023-04-15T15:18:26.508Z,3.17
2023-04-15T15:19:28.849Z,3.10
2023-04-15T15:20:32.838Z,3.85
2023-04-15T15:21:34.952Z,3.25
2023-04-15T15:22:36.390Z,3.80
2023-04-15T15:23:38.279Z,3.60
2023-04-15T15:24:39.836Z,4.10
2023-04-15T15:25:41.337Z,3.47
2023-04-15T15:26:42.901Z,4.28
2023-04-15T15:27:44.566Z,3.88
2023-04-15T15:28:46.120Z,3.80
2023-04-15T15:29:47.660Z,3.60
2023-04-15T15:30:49.130Z,3.45
2023-04-15T15:31:50.764Z,3.55
2023-04-15T15:32:52.747Z,4.20
2023-04-15T15:33:54.314Z,3.55
2023-04-15T15:34:55.774Z,3.60
2023-04-15T15:35:58.152Z,3.60
2023-04-15T15:37:00.841Z,3.55
2023-04-15T15:38:02.548Z,3.92
2023-04-15T15:39:07.084Z,3.35
2023-04-15T15:40:10.344Z,3.88
2023-04-15T15:41:12.121Z,3.63
2023-04-15T15:42:33.432Z,3.72
2023-04-15T15:43:35.148Z,4.43
2023-04-15T15:44:38.495Z,3.47
2023-04-15T15:45:40.891Z,4.88
2023-04-15T15:46:42.491Z,4.18
2023-04-15T15:47:44.102Z,3.90
2023-04-15T15:48:46.038Z,3.97
2023-04-15T15:49:48.047Z,3.75
2023-04-15T15:50:52.993Z,3.65
2023-04-15T15:52:08.963Z,3.70
2023-04-15T15:53:13.045Z,4.50
2023-04-15T15:54:26.896Z,4.55
2023-04-15T15:55:43.895Z,4.00
2023-04-15T15:56:45.750Z,4.05
2023-04-15T15:57:47.462Z,4.28
2023-04-15T15:58:52.378Z,3.67
2023-04-15T16:00:04.703Z,4.07
2023-04-15T16:01:13.384Z,3.72
2023-04-15T16:02:15.869Z,3.50
2023-04-15T16:03:19.284Z,3.72
2023-04-15T16:05:48.118Z,31.33
2023-04-15T16:06:49.904Z,23.10
2023-04-15T16:07:52.035Z,18.85
2023-04-15T16:09:02.208Z,12.80
2023-04-15T16:10:08.976Z,6.30
2023-04-15T16:11:10.724Z,4.65
2023-04-15T16:12:12.769Z,4.60
2023-04-15T16:13:14.413Z,3.80
2023-04-15T16:14:18.830Z,3.88
2023-04-15T16:15:20.619Z,3.50